Time,TemperatureF,DewpointF,PressureIn,WindDirection,WindDirectionDegrees,WindSpeedMPH,WindSpeedGustMPH,Humidity,HourlyPrecipIn,Conditions,Clouds,dailyrainin,SolarRadiationWatts/m^2,SoftwareType,DateUTC
2013-09-24 00:02:00,29.0,25.0,-100.00,NW,323,3.0,4.0,85,0.00,,,0.05,0.000000,,2013-09-24 06:02:00,
2013-09-24 00:42:00,29.0,25.0,-100.00,WNW,302,3.0,4.0,83,0.00,,,0.05,0.000000,,2013-09-24 06:42:00,
2013-09-24 00:52:00,29.0,25.0,-100.00,WNW,302,3.0,4.0,83,0.00,,,0.05,0.000000,,2013-09-24 06:52:00,
2013-09-24 01:03:00,29.0,25.0,-100.00,WNW,302,3.0,4.0,83,0.00,,,0.05,0.000000,,2013-09-24 07:03:00,
2013-09-24 01:43:00,29.0,25.0,-100.00,WNW,296,2.0,4.0,85,0.00,,,0.04,0.000000,,2013-09-24 07:43:00,
2013-09-24 01:52:00,29.0,25.0,-100.00,WNW,296,2.0,4.0,85,0.00,,,0.04,0.000000,,2013-09-24 07:52:00,
2013-09-24 02:02:00,29.0,25.0,-100.00,WNW,296,2.0,4.0,85,0.00,,,0.04,0.000000,,2013-09-24 08:02:00,
2013-09-24 02:42:00,27.0,24.0,-100.00,WNW,294,1.0,5.0,87,0.00,,,0.04,0.000000,,2013-09-24 08:42:00,
2013-09-24 02:52:00,27.0,24.0,-100.00,WNW,294,1.0,5.0,87,0.00,,,0.04,0.000000,,2013-09-24 08:52:00,
2013-09-24 03:01:00,27.0,24.0,-100.00,WNW,294,1.0,5.0,87,0.00,,,0.04,0.000000,,2013-09-24 09:01:00,
2013-09-24 03:43:00,28.0,25.0,-100.00,NW,321,2.0,5.0,88,0.00,,,-99.99,0.000000,,2013-09-24 09:43:00,
2013-09-24 03:54:00,28.0,25.0,-100.00,NW,321,2.0,5.0,88,0.00,,,-99.99,0.000000,,2013-09-24 09:54:00,
2013-09-24 04:03:00,28.0,25.0,-100.00,NW,321,2.0,5.0,88,0.00,,,-99.99,0.000000,,2013-09-24 10:03:00,
2013-09-24 04:42:00,27.0,24.0,-100.00,NW,320,2.0,5.0,87,0.00,,,0.03,0.000000,,2013-09-24 10:42:00,
2013-09-24 04:53:00,27.0,24.0,-100.00,NW,320,2.0,5.0,87,0.00,,,0.03,0.000000,,2013-09-24 10:53:00,
2013-09-24 05:03:00,27.0,24.0,-100.00,NW,320,2.0,5.0,87,0.00,,,0.03,0.000000,,2013-09-24 11:03:00,
2013-09-24 05:42:00,26.0,22.0,-100.00,NW,326,2.0,5.0,85,0.00,,,0.02,0.000000,,2013-09-24 11:42:00,
2013-09-24 05:52:00,26.0,22.0,-100.00,NW,326,2.0,5.0,85,0.00,,,0.02,0.000000,,2013-09-24 11:52:00,
2013-09-24 06:01:00,26.0,22.0,-100.00,NW,326,2.0,5.0,85,0.00,,,0.02,0.000000,,2013-09-24 12:01:00,
2013-09-24 06:42:00,25.0,21.0,-100.00,NW,317,1.0,4.0,85,0.00,,,0.02,0.000000,,2013-09-24 12:42:00,
2013-09-24 06:52:00,25.0,21.0,-100.00,NW,317,1.0,4.0,85,0.00,,,0.02,0.000000,,2013-09-24 12:52:00,
2013-09-24 07:01:00,25.0,21.0,-100.00,NW,317,1.0,4.0,85,0.00,,,0.02,0.000000,,2013-09-24 13:01:00,
2013-09-24 07:42:00,24.0,21.0,-100.00,WNW,295,1.0,2.0,89,0.00,,,0.00,2.000000,,2013-09-24 13:42:00,
2013-09-24 07:52:00,24.0,21.0,-100.00,WNW,295,1.0,2.0,89,0.00,,,0.00,2.000000,,2013-09-24 13:52:00,
2013-09-24 08:02:00,24.0,21.0,-100.00,WNW,295,1.0,2.0,89,0.00,,,0.00,2.000000,,2013-09-24 14:02:00,
2013-09-24 08:42:00,29.0,24.0,-100.00,North,358,3.0,6.0,82,0.00,,,0.00,44.000000,,2013-09-24 14:42:00,
2013-09-24 08:52:00,29.0,24.0,-100.00,North,358,3.0,6.0,82,0.00,,,0.00,44.000000,,2013-09-24 14:52:00,
2013-09-24 09:01:00,29.0,24.0,-100.00,North,358,3.0,6.0,82,0.00,,,0.00,44.000000,,2013-09-24 15:01:00,
2013-09-24 09:43:00,36.0,27.0,-100.00,North,10,3.0,7.0,69,0.00,,,0.00,345.000000,,2013-09-24 15:43:00,
2013-09-24 09:54:00,36.0,27.0,-100.00,North,10,3.0,7.0,69,0.00,,,0.00,345.000000,,2013-09-24 15:54:00,
2013-09-24 10:03:00,36.0,27.0,-100.00,North,10,3.0,7.0,69,0.00,,,0.00,345.000000,,2013-09-24 16:03:00,
2013-09-24 10:43:00,44.0,28.0,-100.00,NE,46,3.0,6.0,52,0.00,,,0.00,602.000000,,2013-09-24 16:43:00,
2013-09-24 10:53:00,44.0,28.0,-100.00,NE,46,3.0,6.0,52,0.00,,,0.00,602.000000,,2013-09-24 16:53:00,
2013-09-24 11:02:00,44.0,28.0,-100.00,NE,46,3.0,6.0,52,0.00,,,0.00,602.000000,,2013-09-24 17:02:00,
2013-09-24 11:43:00,51.0,23.0,-100.00,NNE,30,3.0,7.0,33,0.00,,,0.00,788.000000,,2013-09-24 17:43:00,
2013-09-24 11:54:00,51.0,23.0,-100.00,NNE,30,3.0,7.0,33,0.00,,,0.00,788.000000,,2013-09-24 17:54:00,
2013-09-24 12:03:00,51.0,23.0,-100.00,NNE,30,3.0,7.0,33,0.00,,,0.00,788.000000,,2013-09-24 18:03:00,
2013-09-24 12:42:00,57.0,16.0,-100.00,ESE,105,4.0,8.0,20,0.00,,,0.00,905.000000,,2013-09-24 18:42:00,
2013-09-24 12:52:00,57.0,16.0,-100.00,ESE,105,4.0,8.0,20,0.00,,,0.00,905.000000,,2013-09-24 18:52:00,
2013-09-24 13:02:00,57.0,16.0,-100.00,ESE,105,4.0,8.0,20,0.00,,,0.00,905.000000,,2013-09-24 19:02:00,
2013-09-24 13:42:00,61.0,16.0,-100.00,ENE,65,3.0,8.0,17,0.00,,,0.00,957.000000,,2013-09-24 19:42:00,
2013-09-24 13:52:00,61.0,16.0,-100.00,ENE,65,3.0,8.0,17,0.00,,,0.00,957.000000,,2013-09-24 19:52:00,
2013-09-24 14:02:00,61.0,16.0,-100.00,ENE,65,3.0,8.0,17,0.00,,,0.00,957.000000,,2013-09-24 20:02:00,
2013-09-24 14:42:00,63.0,11.0,-100.00,SW,218,5.0,16.0,13,0.00,,,0.00,948.000000,,2013-09-24 20:42:00,
2013-09-24 14:52:00,63.0,11.0,-100.00,SW,218,5.0,16.0,13,0.00,,,0.00,948.000000,,2013-09-24 20:52:00,
2013-09-24 15:02:00,63.0,11.0,-100.00,SW,218,5.0,16.0,13,0.00,,,0.00,948.000000,,2013-09-24 21:02:00,
2013-09-24 15:44:00,62.0,9.0,-100.00,SSE,168,6.0,12.0,12,0.00,,,0.00,868.000000,,2013-09-24 21:44:00,
2013-09-24 15:54:00,62.0,9.0,-100.00,SSE,168,6.0,12.0,12,0.00,,,0.00,868.000000,,2013-09-24 21:54:00,
2013-09-24 16:04:00,62.0,9.0,-100.00,SSE,168,6.0,12.0,12,0.00,,,0.00,868.000000,,2013-09-24 22:04:00,
2013-09-24 16:43:00,62.0,11.0,-100.00,NW,326,6.0,14.0,13,0.00,,,0.00,728.000000,,2013-09-24 22:43:00,
2013-09-24 16:54:00,62.0,11.0,-100.00,NW,326,6.0,14.0,13,0.00,,,0.00,728.000000,,2013-09-24 22:54:00,
2013-09-24 17:03:00,62.0,11.0,-100.00,NW,326,6.0,14.0,13,0.00,,,0.00,728.000000,,2013-09-24 23:03:00,
2013-09-24 17:43:00,62.0,12.0,-100.00,NW,305,4.0,14.0,14,0.00,,,0.00,533.000000,,2013-09-24 23:43:00,
2013-09-24 17:53:00,62.0,12.0,-100.00,NW,305,4.0,14.0,14,0.00,,,0.00,533.000000,,2013-09-24 23:53:00,
2013-09-24 18:02:00,62.0,12.0,-100.00,NW,305,4.0,14.0,14,0.00,,,0.00,533.000000,,2013-09-25 00:02:00,
2013-09-24 18:42:00,57.0,8.0,-100.00,NW,323,3.0,10.0,14,0.00,,,0.00,228.000000,,2013-09-25 00:42:00,
2013-09-24 18:52:00,57.0,8.0,-100.00,NW,323,3.0,10.0,14,0.00,,,0.00,228.000000,,2013-09-25 00:52:00,
2013-09-24 19:02:00,57.0,8.0,-100.00,NW,323,3.0,10.0,14,0.00,,,0.00,228.000000,,2013-09-25 01:02:00,
2013-09-24 19:42:00,50.0,7.0,-100.00,West,274,3.0,10.0,17,0.00,,,0.00,13.000000,,2013-09-25 01:42:00,
2013-09-24 20:42:00,43.0,11.0,-100.00,North,3,1.0,6.0,27,0.00,,,0.00,0.000000,,2013-09-25 02:42:00,
2013-09-24 20:52:00,43.0,11.0,-100.00,North,3,1.0,6.0,27,0.00,,,0.00,0.000000,,2013-09-25 02:52:00,
2013-09-24 21:02:00,43.0,11.0,-100.00,North,3,1.0,6.0,27,0.00,,,0.00,0.000000,,2013-09-25 03:02:00,
2013-09-24 21:45:00,39.0,17.0,-100.00,WNW,298,3.0,6.0,41,0.00,,,0.00,0.000000,,2013-09-25 03:45:00,
2013-09-24 21:55:00,39.0,17.0,-100.00,WNW,298,3.0,6.0,41,0.00,,,0.00,0.000000,,2013-09-25 03:55:00,
2013-09-24 22:04:00,39.0,17.0,-100.00,WNW,298,3.0,6.0,41,0.00,,,0.00,0.000000,,2013-09-25 04:04:00,
2013-09-24 22:43:00,37.0,20.0,-100.00,NW,306,3.0,5.0,50,0.00,,,0.00,0.000000,,2013-09-25 04:43:00,
2013-09-24 22:54:00,37.0,20.0,-100.00,NW,306,3.0,5.0,50,0.00,,,0.00,0.000000,,2013-09-25 04:54:00,
2013-09-24 23:03:00,37.0,20.0,-100.00,NW,306,3.0,5.0,50,0.00,,,0.00,0.000000,,2013-09-25 05:03:00,
2013-09-24 23:44:00,35.0,21.0,-100.00,NW,313,4.0,6.0,56,0.00,,,0.00,0.000000,,2013-09-25 05:44:00,
2013-09-24 23:53:00,35.0,21.0,-100.00,NW,313,4.0,6.0,56,0.00,,,0.00,0.000000,,2013-09-25 05:53:00,